Language selection

My Weather Profile Weather Topics  | 

Lake Nipigon: Past 24 Hour Conditions

 

Thunder Bay Airport

12:00 AM EDT 28 September 2021
Disclaimer

This table is a summary of hourly weather conditions for the past 24 hours.
Please note that these observations might not always be representative of weather conditions over their associated marine area.

Date / Time
(EDT)
Wind(knots) Conditions Visibility(km) Pressure(kPa) Air tempC) Relative humidity(%) Dew pointC)
28 September 2021
0:00 WNW 3 Clear 16 101.6 4 100 4
27 September 2021
23:00 WNW 3 Clear 24 101.6 6 100 6
22:00 WSW 2 Clear 24 101.5 7 100 7
21:00 calm Mainly Clear 24 101.5 8 97 8
20:00 SSW 3 Mainly Clear 32 101.5 14 70 8
19:00 S 4 Mainly Sunny 32 101.4 16 65 9
18:00 SE 5 Mainly Sunny 32 101.4 17 59 9
17:00 E 6 Mainly Sunny 32 101.4 17 58 9
16:00 E 6 Mainly Sunny 32 101.4 17 55 8
15:00 E 4 Mainly Sunny 32 101.4 17 58 8
14:00 E 4 Partly Cloudy 32 101.5 16 61 8
13:00 SSW 3 Partly Cloudy 32 101.5 14 64 8
12:00 SSW 3 Mostly Cloudy 32 101.5 12 71 7
11:00 N 1 Partly Cloudy 32 101.5 11 82 8
10:00 SSW 4 Partly Cloudy 32 101.4 7 99 7
9:00 W 2 Partly Cloudy 32 101.4 3 100 3
8:00 SW 3 Fog 32 101.3 3 100 3
7:00 W 3 Partly Cloudy 32 101.2 2 100 2
6:00 W 3 Clear 24 101.2 3 100 3
5:00 WSW 2 Fog 24 101.1 4 100 4
4:00 WSW 4 Clear 24 101.0 4 100 4
3:00 W 3 Clear 24 100.9 5 100 5
2:00 WNW 3 Clear 24 100.9 5 100 5
1:00 W 2 Clear 24 100.8 6 100 6
0:00 WNW 3 Clear 24 100.8 7 100 7

Zoom-in to make a selection

Map of Great Lakes - Lake Superior marine weather areas Mid Superior - 45001 East Superior - 45004 West Superior - 45006 Slate Island - 45136 Lake Of the Woods - 45148 Kenora Airport Royal Island Armstrong Airport Caribou Island Marathon Airport Pukaskwa National Park Thunder Bay Airport Welcome Island Little Flatland Island Sault Ste. Marie Airport Wawa Airport
Legend:
buoy Buoy
land station Land Station

Great Lakes - Lake Superior Area

Another Region

What we are doing

Date modified: